Кольцово

Карта отелей и гостиниц, располагающихся рядом с аэропортом Кольцово :

Кольцово
Екатеринбург
Свердловская область 56° 44' 35.0412" N, 60° 48' 13.0788" E
Код аэродрома ИКАО
USSS
Код аэродрома RU
УССС
Координаты
N56.74307° E060.80363°
Превышение над уровнем моря
234
Основная полоса
08R/26L
Курс магнитный
079,7/259,7
Длина основной ВПП
3026
Ширина основной ВПП
53
Покрытие основной ВПП
Твёрдое
Освещение ВПП
Постоянное
Тип: 
Аэродром
Класс аэродрома: 
Международный
Принадлежность: 
ГА
Статус: 
Действующий
Сайт: 
www.koltsovo.ru
E-mail аэродрома: 
airport@koltsovo.ru
Страна: 
Россия
Регион: 
Свердловская область
Город: 
Екатеринбург
Дополнительная информация: 
Оператор: ПАО «Аэропорт Кольцово». Нкр.=(600)м. Совместного базирования. Стоянка ВС МО на С-В от КТА. Военный индекс: XSSS / ЬССС. Военный позывной: "Аленький". Базируется государственная (военная) авиация МОРФ (с 2013 г - 390-й отдельный транспортный смешанный авиационный полк).
Погода: 

Авиационная погода в Екатеринбурге

Регион: 
Погода METAR: 
USSS 261730Z 11002MPS CAVOK M22/M27 Q1021 R08R/820350 NOSIG RMK QFE745/0994
Время наблюдения
2021-02-26T17:30:00Z
Температура C
-22.0
Точка росы
-27.0
Направление ветра
110
Скорость ветра (узлы)
4
Метео видимость
6.21
Явления погоды
Условия полета
VFR
Аэропорт подробнее: 

Найти трансфер

С помощью этой формы Вы можете найти трансфер из аэропорта Кольцово в город, аэропорт или вокзал:

Карта места

Javascript is required to view this map.

Погода в аэропортах:

Авиационная погода в Дашогузе

Регион: 
Погода METAR: 
UTAT 261800Z 19012KT 9999 -SN OVC033 M02/M06 Q1025 R08/CLRD70 NOSIG
Время наблюдения
2021-02-26T18:00:00Z
Температура C
-2.0
Точка росы
-6.0
Направление ветра
190
Скорость ветра (узлы)
12
Метео видимость
6.21
Явления погоды
-SN
Условия полета
VFR

Авиационная погода в Уральске

Регион: 
Погода METAR: 
UARR 261800Z 15008MPS 4100 -SN SCT010 BKN040 M10/M12 Q1013 R22/453540 NOSIG RMK QFE756/1009
Время наблюдения
2021-02-26T18:00:00Z
Температура C
-10.0
Точка росы
-12.0
Направление ветра
150
Скорость ветра (узлы)
16
Метео видимость
2.55
Явления погоды
-SN
Условия полета
IFR
Аэропорт подробнее: 

Авиационная погода в Волгограде

Регион: 
Погода METAR: 
URWW 261730Z 24007MPS 0100 R24/0300N FG VV001 02/02 Q1013 R24/320045 NOSIG RMK QBB050 OBST OBSC
Время наблюдения
2021-02-26T17:30:00Z
Температура C
2.0
Точка росы
2.0
Направление ветра
240
Скорость ветра (узлы)
14
Метео видимость
0.06
Явления погоды
FG
Условия полета
LIFR
Аэропорт подробнее: 

Авиационная погода в Архангельске

Регион: 
Погода METAR: 
ULAA 261730Z 15003MPS 110V220 4800 -SHSN BKN007CB OVC016 M11/M13 Q1002 R08/490538 NOSIG RMK QFE751/1001
Время наблюдения
2021-02-26T17:30:00Z
Температура C
-11.0
Точка росы
-13.0
Направление ветра
150
Скорость ветра (узлы)
6
Метео видимость
2.98
Явления погоды
-SHSN
Условия полета
IFR
Аэропорт подробнее: